createdAt,value
2023-05-12T00:00:37.389Z,95241.84
2023-05-12T00:03:05.094Z,95245.66
2023-05-12T00:05:32.989Z,95240.97
2023-05-12T00:08:02.261Z,95249.75
2023-05-12T00:10:30.034Z,95245.88
2023-05-12T00:12:58.172Z,95243.84
2023-05-12T00:15:26.059Z,95237.53
2023-05-12T00:17:53.836Z,95245.47
2023-05-12T00:20:21.997Z,95241.00
2023-05-12T00:22:49.752Z,95235.72
2023-05-12T00:25:19.188Z,95241.19
2023-05-12T00:27:46.847Z,95241.38
2023-05-12T00:30:15.482Z,95244.66
2023-05-12T00:32:43.135Z,95236.91
2023-05-12T00:35:11.342Z,95229.19
2023-05-12T00:37:38.924Z,95230.00
2023-05-12T00:40:07.951Z,95223.50
2023-05-12T00:42:37.340Z,95223.50
2023-05-12T00:45:06.594Z,95234.09
2023-05-12T00:47:34.908Z,95222.50
2023-05-12T00:50:04.378Z,95229.19
2023-05-12T00:52:32.469Z,95215.38
2023-05-12T00:55:01.645Z,95224.94
2023-05-12T00:57:29.861Z,95217.22
2023-05-12T00:59:59.916Z,95221.88
2023-05-12T01:02:28.023Z,95209.25
2023-05-12T01:04:57.863Z,95210.88
2023-05-12T01:07:27.331Z,95211.50
2023-05-12T01:09:56.546Z,95212.09
2023-05-12T01:12:25.845Z,95213.34
2023-05-12T01:14:55.580Z,95213.31
2023-05-12T01:17:30.918Z,95211.69
2023-05-12T01:20:02.296Z,95211.69
2023-05-12T01:22:32.048Z,95214.53
2023-05-12T01:25:03.635Z,95214.31
2023-05-12T01:27:34.901Z,95213.31
2023-05-12T01:30:05.868Z,95214.94
2023-05-12T01:32:36.646Z,95211.88
2023-05-12T01:35:05.664Z,95208.84
2023-05-12T01:37:35.101Z,95213.31
2023-05-12T01:40:06.091Z,95214.09
2023-05-12T01:42:35.123Z,95226.28
2023-05-12T01:45:03.125Z,95214.09
2023-05-12T01:47:31.770Z,95220.19
2023-05-12T01:50:10.991Z,95221.00
2023-05-12T01:52:39.364Z,95216.09
2023-05-12T01:55:11.166Z,95219.75
2023-05-12T01:57:51.648Z,95222.38
2023-05-12T02:00:21.949Z,95224.66
2023-05-12T02:02:52.245Z,95227.66
2023-05-12T02:05:20.541Z,95223.41
2023-05-12T02:07:50.661Z,95222.38
2023-05-12T02:10:19.324Z,95225.03
2023-05-12T02:12:47.175Z,95224.03
2023-05-12T02:15:16.370Z,95227.28
2023-05-12T02:17:53.908Z,95226.28
2023-05-12T02:20:22.856Z,95223.03
2023-05-12T02:22:51.211Z,95223.03
2023-05-12T02:25:19.088Z,95223.03
2023-05-12T02:27:48.221Z,95216.09
2023-05-12T02:30:19.340Z,95227.28
2023-05-12T02:32:47.932Z,95223.63
2023-05-12T02:35:15.950Z,95217.31
2023-05-12T02:37:43.880Z,95215.66
2023-05-12T02:40:12.173Z,95213.63
2023-05-12T02:42:41.401Z,95214.22
2023-05-12T02:45:10.150Z,95204.69
2023-05-12T02:47:39.214Z,95217.69
2023-05-12T02:50:09.125Z,95211.38
2023-05-12T02:52:37.189Z,95214.66
2023-05-12T02:55:05.559Z,95216.47
2023-05-12T02:57:34.334Z,95216.47
2023-05-12T03:00:04.501Z,95213.00
2023-05-12T03:02:33.968Z,95225.03
2023-05-12T03:05:03.042Z,95218.13
2023-05-12T03:07:31.124Z,95213.84
2023-05-12T03:09:59.930Z,95215.28
2023-05-12T03:12:29.233Z,95220.56
2023-05-12T03:14:57.126Z,95222.19
2023-05-12T03:17:24.758Z,95218.72
2023-05-12T03:19:52.765Z,95220.56
2023-05-12T03:22:21.743Z,95223.81
2023-05-12T03:24:50.286Z,95218.13
2023-05-12T03:27:18.257Z,95220.56
2023-05-12T03:29:45.892Z,95216.72
2023-05-12T03:32:13.830Z,95221.78
2023-05-12T03:34:41.503Z,95217.13
2023-05-12T03:37:09.507Z,95215.28
2023-05-12T03:39:38.779Z,95220.56
2023-05-12T03:42:07.374Z,95224.22
2023-05-12T03:44:35.047Z,95223.81
2023-05-12T03:47:02.756Z,95224.22
2023-05-12T03:49:31.090Z,95207.94
2023-05-12T03:51:58.977Z,95215.66
2023-05-12T03:54:26.937Z,95219.28
2023-05-12T03:56:55.933Z,95217.06
2023-05-12T03:59:23.931Z,95218.69
2023-05-12T04:01:53.594Z,95210.56
2023-05-12T04:04:21.403Z,95222.78
2023-05-12T04:06:49.476Z,95212.44
2023-05-12T04:09:17.250Z,95215.91
2023-05-12T04:11:45.255Z,95209.97
2023-05-12T04:14:14.221Z,95216.31
2023-05-12T04:16:42.279Z,95214.91
2023-05-12T04:19:10.000Z,95217.75
2023-05-12T04:21:38.565Z,95217.75
2023-05-12T04:24:06.636Z,95218.38
2023-05-12T04:26:37.094Z,95223.66
2023-05-12T04:29:05.067Z,95214.13
2023-05-12T04:31:34.584Z,95225.72
2023-05-12T04:34:04.204Z,95223.09
2023-05-12T04:36:33.657Z,95228.38
2023-05-12T04:39:02.120Z,95230.84
2023-05-12T04:41:30.160Z,95233.25
2023-05-12T04:44:00.942Z,95228.81
2023-05-12T04:46:29.296Z,95230.63
2023-05-12T04:48:58.443Z,95232.06
2023-05-12T04:51:26.830Z,95236.56
2023-05-12T04:53:54.440Z,95238.19
2023-05-12T04:56:22.676Z,95243.09
2023-05-12T04:58:50.909Z,95241.06
2023-05-12T05:01:18.998Z,95245.53
2023-05-12T05:03:46.813Z,95246.34
2023-05-12T05:06:15.904Z,95238.63
2023-05-12T05:08:43.749Z,95241.28
2023-05-12T05:11:11.369Z,95245.56
2023-05-12T05:13:39.346Z,95244.72
2023-05-12T05:16:07.735Z,95253.28
2023-05-12T05:18:36.129Z,95242.28
2023-05-12T05:21:03.939Z,95248.00
2023-05-12T05:23:32.903Z,95240.66
2023-05-12T05:26:00.496Z,95248.38
2023-05-12T05:28:28.525Z,95248.38
2023-05-12T05:30:56.186Z,95252.66
2023-05-12T05:33:24.098Z,95253.69
2023-05-12T05:35:52.257Z,95250.38
2023-05-12T05:38:20.400Z,95255.25
2023-05-12T05:40:54.122Z,95252.19
2023-05-12T05:43:23.491Z,95254.41
2023-05-12T05:45:51.619Z,95249.09
2023-05-12T05:48:21.776Z,95259.66
2023-05-12T05:50:51.604Z,95255.94
2023-05-12T05:53:19.540Z,95254.72
2023-05-12T05:55:48.896Z,95257.59
2023-05-12T05:58:18.296Z,95252.25
2023-05-12T06:00:46.970Z,95257.13
2023-05-12T06:03:14.786Z,95256.09
2023-05-12T06:05:44.067Z,95263.66
2023-05-12T06:08:13.343Z,95259.13
2023-05-12T06:10:42.077Z,95255.84
2023-05-12T06:13:09.963Z,95268.06
2023-05-12T06:15:39.376Z,95258.88
2023-05-12T06:18:07.107Z,95258.84
2023-05-12T06:20:34.839Z,95263.94
2023-05-12T06:23:03.126Z,95266.81
2023-05-12T06:25:33.000Z,95259.66
2023-05-12T06:28:01.908Z,95270.09
2023-05-12T06:30:29.600Z,95267.38
2023-05-12T06:32:59.487Z,95265.84
2023-05-12T06:35:27.355Z,95262.47
2023-05-12T06:37:55.079Z,95267.63
2023-05-12T06:40:22.653Z,95263.41
2023-05-12T06:42:50.377Z,95273.78
2023-05-12T06:45:21.331Z,95264.13
2023-05-12T06:47:49.513Z,95266.72
2023-05-12T06:50:18.680Z,95272.47
2023-05-12T06:52:46.973Z,95259.69
2023-05-12T06:55:19.740Z,95266.47
2023-05-12T06:57:47.999Z,95262.94
2023-05-12T07:00:16.433Z,95265.75
2023-05-12T07:02:44.081Z,95271.44
2023-05-12T07:05:12.026Z,95270.47
2023-05-12T07:07:41.427Z,95271.50
2023-05-12T07:10:10.308Z,95268.56
2023-05-12T07:12:38.384Z,95263.25
2023-05-12T07:15:07.176Z,95266.41
2023-05-12T07:17:34.885Z,95274.50
2023-05-12T07:20:04.768Z,95269.13
2023-05-12T07:22:33.229Z,95274.25
2023-05-12T07:25:02.308Z,95271.78
2023-05-12T07:27:30.558Z,95266.47
2023-05-12T07:29:58.403Z,95269.72
2023-05-12T07:32:27.016Z,95273.19
2023-05-12T07:34:54.783Z,95270.91
2023-05-12T07:37:22.922Z,95269.41
2023-05-12T07:39:50.716Z,95269.25
2023-05-12T07:42:19.736Z,95269.84
2023-05-12T07:44:47.336Z,95268.34
2023-05-12T07:47:15.117Z,95276.47
2023-05-12T07:49:44.296Z,95273.91
2023-05-12T07:52:11.942Z,95271.88
2023-05-12T07:54:39.523Z,95278.81
2023-05-12T07:57:07.120Z,95262.69
2023-05-12T07:59:36.031Z,95270.69
2023-05-12T08:02:03.940Z,95266.06
2023-05-12T08:04:31.694Z,95264.91
2023-05-12T08:06:59.561Z,95264.47
2023-05-12T08:09:27.151Z,95269.31
2023-05-12T08:11:54.899Z,95264.09
2023-05-12T08:14:22.821Z,95270.88
2023-05-12T08:16:51.983Z,95266.31
2023-05-12T08:19:19.724Z,95265.94
2023-05-12T08:21:47.313Z,95266.47
2023-05-12T08:24:14.880Z,95266.47
2023-05-12T08:26:43.046Z,95268.84
2023-05-12T08:29:10.694Z,95273.19
2023-05-12T08:31:39.737Z,95269.69
2023-05-12T08:34:10.934Z,95262.56
2023-05-12T08:36:39.152Z,95281.47
2023-05-12T08:39:06.882Z,95271.31
2023-05-12T08:41:43.506Z,95269.81
2023-05-12T08:44:12.395Z,95268.34
2023-05-12T08:46:40.665Z,95264.31
2023-05-12T08:49:15.714Z,95266.41
2023-05-12T08:51:49.940Z,95266.44
2023-05-12T08:54:25.822Z,95267.81
2023-05-12T08:59:26.075Z,95264.19
2023-05-12T09:01:55.896Z,95268.56
2023-05-12T09:04:24.984Z,95269.94
2023-05-12T09:06:55.572Z,95255.78
2023-05-12T09:09:25.960Z,95266.13
2023-05-12T09:11:57.828Z,95267.25
2023-05-12T09:14:26.994Z,95264.75
2023-05-12T09:16:59.636Z,95270.66
2023-05-12T09:19:29.077Z,95267.72
2023-05-12T09:21:56.879Z,95268.66
2023-05-12T09:24:35.088Z,95272.03
2023-05-12T09:27:02.719Z,95273.38
2023-05-12T09:29:32.416Z,95274.75
2023-05-12T09:32:03.349Z,95262.91
2023-05-12T09:34:35.652Z,95275.94
2023-05-12T09:37:06.430Z,95271.97
2023-05-12T09:39:34.657Z,95267.63
2023-05-12T09:42:02.446Z,95272.66
2023-05-12T09:44:31.085Z,95272.50
2023-05-12T09:47:07.128Z,95277.25
2023-05-12T09:49:36.361Z,95266.13
2023-05-12T09:52:05.384Z,95276.22
2023-05-12T09:54:34.319Z,95269.78
2023-05-12T09:57:04.851Z,95270.50
2023-05-12T09:59:34.094Z,95270.59
2023-05-12T10:02:04.617Z,95272.72
2023-05-12T10:04:39.286Z,95266.88
2023-05-12T10:07:11.503Z,95267.19
2023-05-12T10:09:42.757Z,95269.50
2023-05-12T10:12:11.175Z,95275.78
2023-05-12T10:14:38.999Z,95278.22
2023-05-12T10:17:07.301Z,95273.53
2023-05-12T10:19:36.526Z,95270.28
2023-05-12T10:22:06.748Z,95274.25
2023-05-12T10:24:36.561Z,95272.28
2023-05-12T10:27:06.433Z,95267.22
2023-05-12T10:29:34.605Z,95269.22
2023-05-12T10:32:02.567Z,95270.41
2023-05-12T10:34:35.517Z,95259.41
2023-05-12T10:37:08.145Z,95264.19
2023-05-12T10:39:37.895Z,95262.38
2023-05-12T10:42:08.307Z,95268.13
2023-05-12T10:44:36.292Z,95275.13
2023-05-12T10:47:14.106Z,95268.97
2023-05-12T10:49:42.192Z,95263.47
2023-05-12T10:52:12.341Z,95266.06
2023-05-12T10:54:44.434Z,95271.75
2023-05-12T10:57:18.929Z,95265.91
2023-05-12T10:59:51.254Z,95278.56
2023-05-12T11:02:22.078Z,95276.97
2023-05-12T11:04:53.095Z,95275.44
2023-05-12T11:07:24.251Z,95280.41
2023-05-12T11:09:59.017Z,95283.16
2023-05-12T11:12:32.251Z,95287.81
2023-05-12T11:15:01.326Z,95282.78
2023-05-12T11:17:29.074Z,95288.66
2023-05-12T11:19:57.108Z,95291.72
2023-05-12T11:22:25.434Z,95293.34
2023-05-12T11:24:54.688Z,95300.41
2023-05-12T11:27:24.010Z,95300.97
2023-05-12T11:29:58.838Z,95287.19
2023-05-12T11:32:26.898Z,95294.31
2023-05-12T11:34:54.584Z,95301.53
2023-05-12T11:37:22.956Z,95301.22
2023-05-12T11:39:52.833Z,95297.38
2023-05-12T11:42:24.407Z,95300.91
2023-05-12T11:44:55.336Z,95298.94
2023-05-12T11:47:23.007Z,95295.81
2023-05-12T11:49:52.584Z,95299.09
2023-05-12T11:52:22.157Z,95297.00
2023-05-12T11:54:50.903Z,95293.75
2023-05-12T11:57:31.704Z,95305.72
2023-05-12T12:00:01.127Z,95299.34
2023-05-12T12:02:29.505Z,95295.16
2023-05-12T12:04:57.956Z,95302.47
2023-05-12T12:07:31.303Z,95313.47
2023-05-12T12:09:58.948Z,95304.78
2023-05-12T12:12:26.733Z,95309.53
2023-05-12T12:15:00.376Z,95313.25
2023-05-12T12:17:30.834Z,95306.88
2023-05-12T12:19:58.877Z,95309.06
2023-05-12T12:22:26.891Z,95304.47
2023-05-12T12:24:54.662Z,95310.47
2023-05-12T12:27:22.266Z,95310.25
2023-05-12T12:29:50.242Z,95307.22
2023-05-12T12:32:19.611Z,95312.31
2023-05-12T12:34:48.807Z,95306.75
2023-05-12T12:37:17.058Z,95316.00
2023-05-12T12:39:44.888Z,95311.50
2023-05-12T12:42:13.311Z,95307.66
2023-05-12T12:44:41.028Z,95307.06
2023-05-12T12:47:08.729Z,95308.06
2023-05-12T12:49:37.715Z,95305.16
2023-05-12T12:52:05.975Z,95300.28
2023-05-12T12:54:33.757Z,95296.69
2023-05-12T12:57:01.502Z,95304.31
2023-05-12T12:59:29.121Z,95308.69
2023-05-12T13:01:59.940Z,95299.16
2023-05-12T13:04:27.945Z,95301.47
2023-05-12T13:06:57.033Z,95299.53
2023-05-12T13:09:24.644Z,95301.16
2023-05-12T13:11:52.910Z,95301.53
2023-05-12T13:14:21.483Z,95307.84
2023-05-12T13:16:49.232Z,95300.03
2023-05-12T13:19:16.948Z,95298.19
2023-05-12T13:21:44.883Z,95301.84
2023-05-12T13:24:13.866Z,95304.69
2023-05-12T13:26:41.478Z,95303.94
2023-05-12T13:29:09.086Z,95294.31
2023-05-12T13:31:38.616Z,95302.50
2023-05-12T13:34:06.260Z,95302.59
2023-05-12T13:36:34.667Z,95298.44
2023-05-12T13:39:02.960Z,95299.16
2023-05-12T13:41:32.194Z,95299.84
2023-05-12T13:43:59.957Z,95293.81
2023-05-12T13:46:27.556Z,95300.63
2023-05-12T13:48:55.284Z,95300.91
2023-05-12T13:51:23.559Z,95296.53
2023-05-12T13:53:51.290Z,95306.84
2023-05-12T13:56:19.508Z,95302.22
2023-05-12T13:58:48.845Z,95305.03
2023-05-12T14:01:16.959Z,95302.38
2023-05-12T14:03:45.534Z,95298.53
2023-05-12T14:06:13.336Z,95299.34
2023-05-12T14:08:41.796Z,95299.31
2023-05-12T14:11:09.995Z,95305.63
2023-05-12T14:13:37.653Z,95307.50
2023-05-12T14:16:07.647Z,95299.00
2023-05-12T14:18:35.478Z,95295.47
2023-05-12T14:21:03.382Z,95302.69
2023-05-12T14:23:30.980Z,95298.28
2023-05-12T14:25:59.332Z,95299.00
2023-05-12T14:28:27.103Z,95304.16
2023-05-12T14:30:54.991Z,95298.38
2023-05-12T14:33:23.933Z,95308.19
2023-05-12T14:36:03.040Z,95311.38
2023-05-12T14:38:34.590Z,95309.59
2023-05-12T14:41:02.239Z,95313.97
2023-05-12T14:43:29.900Z,95322.81
2023-05-12T14:45:57.858Z,95311.28
2023-05-12T14:48:27.144Z,95317.41
2023-05-12T14:50:55.510Z,95317.41
2023-05-12T14:53:23.840Z,95311.38
2023-05-12T14:55:51.559Z,95322.47
2023-05-12T14:58:21.697Z,95323.63
2023-05-12T15:00:51.299Z,95316.78
2023-05-12T15:03:20.729Z,95324.44
2023-05-12T15:08:21.731Z,95316.78
2023-05-12T15:10:49.880Z,95314.19
2023-05-12T15:13:20.160Z,95323.47
2023-05-12T15:15:47.927Z,95312.84
2023-05-12T15:18:16.137Z,95317.06
2023-05-12T15:20:43.850Z,95322.94
2023-05-12T15:23:13.152Z,95321.81
2023-05-12T15:25:41.222Z,95322.69
2023-05-12T15:28:09.485Z,95319.34
2023-05-12T15:30:37.367Z,95325.72
2023-05-12T15:33:06.170Z,95322.75
2023-05-12T15:35:34.171Z,95324.38
2023-05-12T15:38:01.905Z,95328.41
2023-05-12T15:40:31.377Z,95323.19
2023-05-12T15:42:59.134Z,95318.34
2023-05-12T15:45:26.747Z,95324.41
2023-05-12T15:47:54.376Z,95324.16
2023-05-12T15:50:22.955Z,95315.88
2023-05-12T15:52:51.116Z,95328.59
2023-05-12T15:55:19.498Z,95318.03
2023-05-12T15:57:48.889Z,95315.81
2023-05-12T16:00:17.962Z,95310.91
2023-05-12T16:02:45.662Z,95313.31
2023-05-12T16:05:13.599Z,95321.56
2023-05-12T16:07:41.357Z,95322.31
2023-05-12T16:10:10.192Z,95324.69
2023-05-12T16:12:37.801Z,95330.47
2023-05-12T16:15:07.608Z,95326.00
2023-05-12T16:17:35.482Z,95323.94
2023-05-12T16:20:04.487Z,95330.81
2023-05-12T16:22:32.253Z,95333.97
2023-05-12T16:24:59.859Z,95329.41
2023-05-12T16:27:28.066Z,95333.81
2023-05-12T16:29:55.653Z,95323.94
2023-05-12T16:32:24.643Z,95330.00
2023-05-12T16:34:52.274Z,95322.03
2023-05-12T16:37:19.886Z,95322.16
2023-05-12T16:39:47.478Z,95320.69
2023-05-12T16:42:15.483Z,95327.28
2023-05-12T16:44:43.082Z,95332.38
2023-05-12T16:47:11.106Z,95335.88
2023-05-12T16:49:40.039Z,95323.47
2023-05-12T16:52:09.463Z,95324.16
2023-05-12T16:54:38.051Z,95323.56
2023-05-12T16:57:06.089Z,95322.75
2023-05-12T16:59:33.704Z,95333.09
2023-05-12T17:02:01.960Z,95337.75
2023-05-12T17:04:29.882Z,95344.09
2023-05-12T17:06:59.175Z,95337.13
2023-05-12T17:09:26.823Z,95341.41
2023-05-12T17:11:54.433Z,95348.41
2023-05-12T17:14:22.849Z,95346.94
2023-05-12T17:16:50.443Z,95350.63
2023-05-12T17:19:18.280Z,95350.69
2023-05-12T17:21:46.028Z,95358.50
2023-05-12T17:24:15.214Z,95353.56
2023-05-12T17:26:42.996Z,95351.56
2023-05-12T17:29:11.362Z,95354.94
2023-05-12T17:31:39.494Z,95358.50
2023-05-12T17:34:07.301Z,95352.84
2023-05-12T17:36:34.934Z,95353.34
2023-05-12T17:39:03.835Z,95355.22
2023-05-12T17:41:35.842Z,95351.44
2023-05-12T17:44:03.455Z,95356.75
2023-05-12T17:46:31.140Z,95353.00
2023-05-12T17:48:58.963Z,95357.38
2023-05-12T17:51:26.874Z,95363.13
2023-05-12T17:53:54.476Z,95361.88
2023-05-12T17:56:22.559Z,95359.81
2023-05-12T17:58:51.567Z,95357.41
2023-05-12T18:01:19.436Z,95357.50
2023-05-12T18:03:47.034Z,95366.06
2023-05-12T18:06:15.607Z,95370.81
2023-05-12T18:08:43.322Z,95373.44
2023-05-12T18:11:11.372Z,95369.94
2023-05-12T18:13:40.007Z,95368.13
2023-05-12T18:16:18.244Z,95376.31
2023-05-12T18:18:55.669Z,95373.31
2023-05-12T18:21:23.532Z,95372.31
2023-05-12T18:23:51.223Z,95373.50
2023-05-12T18:26:18.890Z,95378.25
2023-05-12T18:28:46.884Z,95374.59
2023-05-12T18:31:19.216Z,95376.03
2023-05-12T18:33:47.629Z,95377.25
2023-05-12T18:36:15.451Z,95376.88
2023-05-12T18:38:43.428Z,95379.34
2023-05-12T18:41:11.179Z,95380.97
2023-05-12T18:43:39.518Z,95379.16
2023-05-12T18:46:07.215Z,95391.19
2023-05-12T18:48:36.493Z,95391.78
2023-05-12T18:51:04.496Z,95388.75
2023-05-12T18:53:32.220Z,95383.84
2023-05-12T18:55:59.885Z,95395.69
2023-05-12T18:58:27.621Z,95395.69
2023-05-12T19:00:55.569Z,95398.94
2023-05-12T19:03:23.549Z,95401.44
2023-05-12T19:05:52.517Z,95406.13
2023-05-12T19:08:21.423Z,95401.03
2023-05-12T19:10:50.733Z,95407.59
2023-05-12T19:13:18.546Z,95405.53
2023-05-12T19:15:46.680Z,95406.34
2023-05-12T19:18:14.306Z,95405.53
2023-05-12T19:20:42.507Z,95409.59
2023-05-12T19:23:11.540Z,95412.69
2023-05-12T19:25:39.304Z,95415.53
2023-05-12T19:28:07.037Z,95412.47
2023-05-12T19:30:35.370Z,95429.59
2023-05-12T19:33:03.058Z,95431.22
2023-05-12T19:35:30.969Z,95420.63
2023-05-12T19:37:58.808Z,95426.78
2023-05-12T19:40:30.864Z,95420.63
2023-05-12T19:43:00.007Z,95431.66
2023-05-12T19:45:30.762Z,95427.97
2023-05-12T19:47:59.598Z,95429.59
2023-05-12T19:50:29.536Z,95432.06
2023-05-12T19:52:57.715Z,95436.97
2023-05-12T19:55:25.347Z,95437.34
2023-05-12T19:57:54.512Z,95436.53
2023-05-12T20:00:22.470Z,95443.66
2023-05-12T20:02:50.590Z,95434.31
2023-05-12T20:05:18.800Z,95434.09
2023-05-12T20:07:46.518Z,95436.34
2023-05-12T20:10:14.105Z,95430.03
2023-05-12T20:12:41.734Z,95434.09
2023-05-12T20:15:11.654Z,95432.84
2023-05-12T20:17:39.375Z,95436.09
2023-05-12T20:20:10.901Z,95445.31
2023-05-12T20:22:39.028Z,95440.19
2023-05-12T20:25:07.495Z,95443.88
2023-05-12T20:27:35.287Z,95441.81
2023-05-12T20:30:02.901Z,95440.81
2023-05-12T20:32:32.457Z,95440.59
2023-05-12T20:35:00.171Z,95441.84
2023-05-12T20:37:27.828Z,95434.88
2023-05-12T20:39:55.697Z,95443.47
2023-05-12T20:42:23.385Z,95434.88
2023-05-12T20:44:50.993Z,95432.47
2023-05-12T20:47:18.684Z,95435.53
2023-05-12T20:49:48.288Z,95441.22
2023-05-12T20:52:16.009Z,95431.66
2023-05-12T20:54:43.620Z,95439.81
2023-05-12T20:57:11.266Z,95426.75
2023-05-12T20:59:38.872Z,95435.13
2023-05-12T21:02:06.748Z,95438.75
2023-05-12T21:04:34.417Z,95443.06
2023-05-12T21:07:03.354Z,95442.63
2023-05-12T21:09:30.994Z,95445.09
2023-05-12T21:11:58.976Z,95447.91
2023-05-12T21:14:26.895Z,95443.84
2023-05-12T21:16:54.591Z,95445.69
2023-05-12T21:19:22.569Z,95448.16
2023-05-12T21:21:50.212Z,95449.13
2023-05-12T21:24:19.288Z,95450.56
2023-05-12T21:26:46.886Z,95451.59
2023-05-12T21:29:14.762Z,95450.75
2023-05-12T21:31:42.397Z,95447.91
2023-05-12T21:34:10.482Z,95451.78
2023-05-12T21:36:38.594Z,95444.22
2023-05-12T21:39:06.238Z,95445.47
2023-05-12T21:41:35.902Z,95451.78
2023-05-12T21:44:03.825Z,95451.59
2023-05-12T21:46:31.556Z,95451.38
2023-05-12T21:48:59.254Z,95450.16
2023-05-12T21:51:27.101Z,95449.13
2023-05-12T21:53:55.257Z,95444.22
2023-05-12T21:56:23.195Z,95444.25
2023-05-12T21:58:52.220Z,95448.50
2023-05-12T22:01:20.162Z,95442.59
2023-05-12T22:03:47.931Z,95445.47
2023-05-12T22:06:15.794Z,95445.06
2023-05-12T22:08:43.526Z,95446.25
2023-05-12T22:11:12.174Z,95449.13
2023-05-12T22:13:39.759Z,95447.47
2023-05-12T22:16:08.970Z,95444.25
2023-05-12T22:18:37.897Z,95448.72
2023-05-12T22:21:06.506Z,95449.91
2023-05-12T22:23:35.157Z,95450.31
2023-05-12T22:26:04.964Z,95447.25
2023-05-12T22:28:33.595Z,95442.97
2023-05-12T22:31:01.435Z,95448.28
2023-05-12T22:33:31.028Z,95440.53
2023-05-12T22:35:59.270Z,95445.41
2023-05-12T22:38:26.916Z,95444.78
2023-05-12T22:40:54.825Z,95433.59
2023-05-12T22:43:22.710Z,95433.97
2023-05-12T22:45:51.801Z,95438.88
2023-05-12T22:48:19.806Z,95436.84
2023-05-12T22:50:49.199Z,95438.28
2023-05-12T22:53:17.043Z,95443.78
2023-05-12T22:55:44.637Z,95442.75
2023-05-12T22:58:12.374Z,95437.47
2023-05-12T23:00:40.093Z,95444.78
2023-05-12T23:03:08.154Z,95438.47
2023-05-12T23:05:35.903Z,95444.97
2023-05-12T23:08:04.946Z,95436.25
2023-05-12T23:10:32.712Z,95438.06
2023-05-12T23:13:00.425Z,95440.28
2023-05-12T23:15:28.041Z,95438.47
2023-05-12T23:17:55.977Z,95440.94
2023-05-12T23:20:24.123Z,95433.59
2023-05-12T23:22:51.786Z,95436.03
2023-05-12T23:25:21.058Z,95436.00
2023-05-12T23:27:48.659Z,95436.44
2023-05-12T23:30:16.486Z,95425.00
2023-05-12T23:32:44.230Z,95421.16
2023-05-12T23:35:11.962Z,95421.78
2023-05-12T23:37:39.606Z,95416.44
2023-05-12T23:40:08.816Z,95419.31
2023-05-12T23:42:37.786Z,95410.38
2023-05-12T23:45:06.457Z,95410.38
2023-05-12T23:47:34.207Z,95422.59
2023-05-12T23:50:01.897Z,95413.63
2023-05-12T23:52:29.581Z,95413.56
2023-05-12T23:54:57.345Z,95398.91
2023-05-12T23:57:25.131Z,95413.13
2023-05-12T23:59:54.110Z,95404.19
